首页
METAR-TAF:

METAR-TAF

机场 :

Burlington Municipal Airport

伯灵顿, 威斯康辛州, 美国

纬度: 42-41-26N, 经度: 088-18-17W, 海拔: 237米

当前天气观测

该预报发布于20分钟前的14:55 UTC
风速8节,风向,有时为14节阵风,在西之间变化
温度 18°C
湿度 100%
气压 1011 hPa
能見度: 16.1公里
散云层高于2000英尺
阴天层高于2600英尺

METAR: KBUU 221455Z AUTO 19008G14KT 170V260 10SM SCT020 OVC026 18/18 A2985 RMK AO2 60002 T01790175

时间: 10:15 (15:15 UTC)


TAF: 丢失

超过4000个机场的气象观测和天气预报(METAR&TAF报告)。

可查询的气象台以黄色和红色小点在地图上表示。

将鼠标移到小点上方,可查看气象台名称。

然后点击查看天气观测和预报。

如需切换地图:点击带黑十字的绿色按钮放大地图;点击带横线的绿色按钮缩小地图;或者点击绿色箭头查看邻近地区的地图。


METAR-TAF: